Impacts METAR Board
IDs:

KMIA - Miami Intl, FL, US

Updated at: 0600 UTC 11 Dec 2018
Potential Impact None Slight Moderate High
Time 10/18Z 10/19Z 10/20Z 10/21Z 10/22Z 10/23Z 11/00Z 11/01Z 11/02Z 11/03Z 11/04Z 11/05Z 11/06Z
Temp71 73 71 71 70 69 68 67 64 63 61 60 58
Dewpt60 60 59 59 58 58 58 57 56 56 54 52 51
Altim30.05 30.03 30.04 30.03 30.05 30.08 30.10 30.11 30.14 30.15 30.16 30.16 30.16
VIS10 10 10 10 10 10 10 10 10 10 10 10 10
CIG55 250 44 55 250 60 250 250 250 250 250 250 250
CoverBKNBKNOVCBKNBKNBKNBKNOVCOVCOVCOVCBKNBKN
FltCatVFRVFRVFRVFRVFRVFRVFRVFRVFRVFRVFRVFRVFR
WX--------------------------
WDir290310310310300330330320340330330330340
WSpd7 8 8 5 4 6 4 8 7 5 6 6 7
WGst-- -- -- -- -- -- -- -- -- -- -- -- --
Raw hourly METARs
KMIA 101753Z 29007KT 260V340 10SM FEW030 BKN055 BKN250 22/16 A3005 RMK AO2 SLP176 T02170156 10222 20206 58012
KMIA 101853Z 31008KT 10SM SCT030 SCT060 BKN250 23/16 A3003 RMK AO2 SLP170 T02280156
KMIA 101953Z 31008KT 10SM OVC044 22/15 A3004 RMK AO2 SLP171 T02170150
KMIA 102053Z 31005KT 10SM BKN055 BKN250 22/15 A3003 RMK AO2 SLP170 T02170150 56006
KMIA 102153Z 30004KT 10SM FEW030 FEW060 SCT130 BKN250 21/14 A3005 RMK AO2 SLP176 T02110144
KMIA 102253Z 33006KT 10SM BKN060 BKN250 21/14 A3008 RMK AO2 SLP184 T02060144
KMIA 102353Z 33004KT 10SM FEW048 BKN250 20/14 A3010 RMK AO2 SLP191 T02000144 10228 20200 53021
KMIA 110053Z 32008KT 10SM OVC250 19/14 A3011 RMK AO2 SLP197 T01940139
KMIA 110153Z 34007KT 10SM OVC250 18/13 A3014 RMK AO2 SLP205 T01780133
KMIA 110253Z 33005KT 10SM OVC250 17/13 A3015 RMK AO2 SLP211 T01720133 53019
KMIA 110353Z 33006KT 10SM OVC250 16/12 A3016 RMK AO2 SLP212 T01610122
KMIA 110453Z COR 33006KT 10SM BKN250 16/11 A3016 RMK AO2 SLP213 T01560111 402280156
KMIA 110553Z 34007KT 10SM FEW025 BKN250 14/11 A3016 RMK AO2 SLP213 T01440106 10200 20144 51003



Page loaded:  06:32 UTC  |   10:32 PM Pacific  |   11:32 PM Mountain  |   12:32 AM Central  |   01:32 AM Eastern

 

ADVISORIES

FORECASTS

FORECASTS

OBSERVATIONS

USER TOOLS

ABOUT US